UAE88 LSZH-OMDB
Flight info
| Callsign | UAE88 |
|---|---|
| Flight time | N/A |
| Altitude | 37000 |
| Route | DEGES Z2 XEBIX L607 ELMEM N606 GIRIS DCT TISAX DCT NAXAV DCT GIKEB DCT ROSKA DCT ROTAR DCT AIOSA DCT LATAN DCT SALUN N705 MMA P751 DASUM Y234 TAMAM/N0492F390 Y234 FYM M872 BDB Y214 RAPMA DCT KUVSO DCT KATIT DCT PEKEM M628 RIGIL G783 ELUDA/N0473F350 G783 ASPED Q308 KIPOK Q568 IMPED |
| Aircraft | A388/J-SADE2E3FGHIJ3J4J5M1RWXY/LB1D1 |
Departure
| Time | N/A |
|---|---|
| Airport | Zürich Airport (LSZH) |
Arrival
| Time | 2026-04-21 20:59 |
|---|---|
| Airport | Dubai International Airport (OMDB) |
| Time | Latitude | Longitude | Altitude | Speed | Heading |
|---|---|---|---|---|---|
| 2026-04-21 20:29 | 22.97453 | 54.96222 | 38768 ft | 540 kts | 73° |
| 2026-04-21 20:29 | 22.98237 | 55.00195 | 38771 ft | 538 kts | 73° |
| 2026-04-21 20:30 | 22.99803 | 55.08128 | 38777 ft | 536 kts | 73° |
| 2026-04-21 20:30 | 23.02036 | 55.15731 | 38783 ft | 525 kts | 57° |
| 2026-04-21 20:31 | 23.03934 | 55.19070 | 38786 ft | 517 kts | 46° |
| 2026-04-21 20:31 | 23.06272 | 55.21981 | 38772 ft | 507 kts | 37° |
| 2026-04-21 20:31 | 23.11903 | 55.26321 | 38773 ft | 488 kts | 19° |
| 2026-04-21 20:32 | 23.18231 | 55.28656 | 38775 ft | 476 kts | 8° |
| 2026-04-21 20:32 | 23.24605 | 55.30523 | 38777 ft | 476 kts | 8° |
| 2026-04-21 20:33 | 23.31010 | 55.32417 | 38772 ft | 476 kts | 8° |
| 2026-04-21 20:33 | 23.37403 | 55.34306 | 38772 ft | 476 kts | 8° |
| 2026-04-21 20:34 | 23.43761 | 55.36185 | 38785 ft | 476 kts | 8° |
| 2026-04-21 20:34 | 23.50162 | 55.38078 | 38771 ft | 476 kts | 8° |
| 2026-04-21 20:35 | 23.56564 | 55.39974 | 38527 ft | 471 kts | 8° |
| 2026-04-21 20:35 | 23.59684 | 55.40898 | 38280 ft | 469 kts | 8° |
| 2026-04-21 20:35 | 23.62841 | 55.41832 | 38009 ft | 470 kts | 8° |
| 2026-04-21 20:36 | 23.66011 | 55.42768 | 37734 ft | 472 kts | 8° |
| 2026-04-21 20:36 | 23.69189 | 55.43708 | 37475 ft | 473 kts | 8° |
| 2026-04-21 20:36 | 23.72376 | 55.44653 | 37228 ft | 475 kts | 9° |
| 2026-04-21 20:36 | 23.75571 | 55.45601 | 36814 ft | 475 kts | 9° |
| 2026-04-21 20:37 | 23.78773 | 55.46551 | 35990 ft | 478 kts | 9° |
| 2026-04-21 20:37 | 23.81982 | 55.47501 | 34934 ft | 486 kts | 10° |
| 2026-04-21 20:37 | 23.85255 | 55.48473 | 34133 ft | 488 kts | 11° |
| 2026-04-21 20:37 | 23.88520 | 55.49446 | 33559 ft | 483 kts | 11° |
| 2026-04-21 20:38 | 23.91749 | 55.50409 | 33040 ft | 477 kts | 11° |
| 2026-04-21 20:38 | 23.94945 | 55.51360 | 32493 ft | 472 kts | 11° |
| 2026-04-21 20:38 | 23.98048 | 55.52402 | 31996 ft | 469 kts | 18° |
| 2026-04-21 20:38 | 24.01000 | 55.53926 | 31466 ft | 469 kts | 27° |
| 2026-04-21 20:39 | 24.03718 | 55.55916 | 30941 ft | 468 kts | 35° |
| 2026-04-21 20:39 | 24.06165 | 55.58275 | 30424 ft | 466 kts | 40° |
| 2026-04-21 20:39 | 24.08518 | 55.60621 | 29889 ft | 462 kts | 39° |
| 2026-04-21 20:39 | 24.10919 | 55.62990 | 29047 ft | 464 kts | 39° |
| 2026-04-21 20:40 | 24.13330 | 55.65367 | 28530 ft | 461 kts | 39° |
| 2026-04-21 20:40 | 24.15693 | 55.67702 | 28254 ft | 461 kts | 39° |
| 2026-04-21 20:40 | 24.18082 | 55.70067 | 27810 ft | 462 kts | 39° |
| 2026-04-21 20:40 | 24.20468 | 55.72433 | 27273 ft | 459 kts | 39° |
| 2026-04-21 20:41 | 24.22803 | 55.74753 | 26771 ft | 455 kts | 39° |
| 2026-04-21 20:41 | 24.25147 | 55.77084 | 26247 ft | 450 kts | 39° |
| 2026-04-21 20:41 | 24.27453 | 55.79377 | 25751 ft | 445 kts | 39° |
| 2026-04-21 20:41 | 24.29714 | 55.81625 | 25112 ft | 445 kts | 39° |
| 2026-04-21 20:42 | 24.32007 | 55.83906 | 24712 ft | 442 kts | 39° |
| 2026-04-21 20:42 | 24.34292 | 55.86180 | 24211 ft | 442 kts | 39° |
| 2026-04-21 20:42 | 24.36579 | 55.88457 | 23553 ft | 444 kts | 39° |
| 2026-04-21 20:42 | 24.38832 | 55.90702 | 23118 ft | 439 kts | 39° |
| 2026-04-21 20:43 | 24.41089 | 55.92953 | 22636 ft | 433 kts | 39° |
| 2026-04-21 20:43 | 24.43314 | 55.95173 | 22147 ft | 428 kts | 39° |
| 2026-04-21 20:43 | 24.45478 | 55.97332 | 21655 ft | 422 kts | 39° |
| 2026-04-21 20:43 | 24.47647 | 55.99496 | 21172 ft | 417 kts | 40° |
| 2026-04-21 20:44 | 24.49783 | 56.01629 | 20683 ft | 412 kts | 40° |
| 2026-04-21 20:44 | 24.51904 | 56.03748 | 20180 ft | 408 kts | 40° |
| 2026-04-21 20:44 | 24.53976 | 56.05818 | 19726 ft | 403 kts | 40° |
| 2026-04-21 20:44 | 24.56051 | 56.07896 | 19237 ft | 400 kts | 40° |
| 2026-04-21 20:45 | 24.58096 | 56.09940 | 18763 ft | 395 kts | 38° |
| 2026-04-21 20:45 | 24.60350 | 56.11606 | 18288 ft | 387 kts | 24° |
| 2026-04-21 20:45 | 24.62847 | 56.12627 | 17791 ft | 379 kts | 10° |
| 2026-04-21 20:45 | 24.65384 | 56.13108 | 17328 ft | 372 kts | 6° |
| 2026-04-21 20:46 | 24.67931 | 56.13561 | 16873 ft | 367 kts | 6° |
| 2026-04-21 20:46 | 24.70445 | 56.14027 | 16406 ft | 363 kts | 6° |
| 2026-04-21 20:46 | 24.72920 | 56.14492 | 15956 ft | 359 kts | 6° |
| 2026-04-21 20:46 | 24.75366 | 56.14948 | 15510 ft | 354 kts | 6° |
| 2026-04-21 20:47 | 24.77792 | 56.15313 | 15058 ft | 349 kts | 358° |
| 2026-04-21 20:47 | 24.80166 | 56.15060 | 14613 ft | 340 kts | 342° |
| 2026-04-21 20:47 | 24.82303 | 56.13975 | 13827 ft | 341 kts | 321° |
| 2026-04-21 20:47 | 24.83958 | 56.12083 | 12772 ft | 348 kts | 301° |
| 2026-04-21 20:48 | 24.85241 | 56.09757 | 11552 ft | 363 kts | 298° |
| 2026-04-21 20:48 | 24.86483 | 56.07365 | 10792 ft | 364 kts | 298° |
| 2026-04-21 20:48 | 24.87733 | 56.04995 | 10538 ft | 349 kts | 298° |
| 2026-04-21 20:48 | 24.88942 | 56.02742 | 10387 ft | 334 kts | 298° |
| 2026-04-21 20:49 | 24.90110 | 56.00580 | 10253 ft | 319 kts | 298° |
| 2026-04-21 20:49 | 24.91227 | 55.98524 | 10145 ft | 305 kts | 298° |
| 2026-04-21 20:49 | 24.92296 | 55.96558 | 10010 ft | 293 kts | 298° |
| 2026-04-21 20:49 | 24.93349 | 55.94621 | 9518 ft | 296 kts | 298° |
| 2026-04-21 20:50 | 24.94391 | 55.92700 | 9107 ft | 295 kts | 298° |
| 2026-04-21 20:50 | 24.95445 | 55.90760 | 8673 ft | 293 kts | 298° |
| 2026-04-21 20:50 | 24.96491 | 55.88833 | 8230 ft | 293 kts | 298° |
| 2026-04-21 20:50 | 24.97535 | 55.86913 | 7841 ft | 291 kts | 299° |
| 2026-04-21 20:51 | 24.98575 | 55.84999 | 7411 ft | 291 kts | 299° |
| 2026-04-21 20:51 | 24.99614 | 55.83085 | 7020 ft | 289 kts | 299° |
| 2026-04-21 20:51 | 25.00646 | 55.81185 | 6635 ft | 288 kts | 299° |
| 2026-04-21 20:51 | 25.01673 | 55.79294 | 6248 ft | 288 kts | 299° |
| 2026-04-21 20:52 | 25.02698 | 55.77406 | 5848 ft | 286 kts | 300° |
| 2026-04-21 20:52 | 25.03720 | 55.75522 | 5414 ft | 286 kts | 300° |
| 2026-04-21 20:52 | 25.04730 | 55.73655 | 4981 ft | 288 kts | 300° |
| 2026-04-21 20:52 | 25.05759 | 55.71753 | 4568 ft | 288 kts | 301° |
| 2026-04-21 20:53 | 25.06783 | 55.69859 | 4285 ft | 284 kts | 301° |
| 2026-04-21 20:53 | 25.07788 | 55.68003 | 4148 ft | 281 kts | 301° |
| 2026-04-21 20:53 | 25.08787 | 55.66158 | 4025 ft | 275 kts | 301° |
| 2026-04-21 20:53 | 25.09755 | 55.64387 | 3899 ft | 264 kts | 302° |
| 2026-04-21 20:54 | 25.10715 | 55.62727 | 3778 ft | 255 kts | 303° |
| 2026-04-21 20:54 | 25.11634 | 55.61085 | 3649 ft | 247 kts | 302° |
| 2026-04-21 20:54 | 25.12519 | 55.59491 | 3538 ft | 240 kts | 302° |
| 2026-04-21 20:54 | 25.13380 | 55.57937 | 3404 ft | 234 kts | 302° |
| 2026-04-21 20:55 | 25.14212 | 55.56436 | 3292 ft | 225 kts | 302° |
| 2026-04-21 20:55 | 25.15021 | 55.54977 | 3088 ft | 217 kts | 302° |
| 2026-04-21 20:55 | 25.15800 | 55.53570 | 2812 ft | 210 kts | 303° |
| 2026-04-21 20:55 | 25.16516 | 55.52277 | 2555 ft | 192 kts | 303° |
| 2026-04-21 20:56 | 25.16982 | 55.51436 | 2381 ft | 189 kts | 303° |
| 2026-04-21 20:56 | 25.17666 | 55.50198 | 2157 ft | 188 kts | 303° |
| 2026-04-21 20:56 | 25.18321 | 55.49018 | 1923 ft | 174 kts | 303° |
| 2026-04-21 20:56 | 25.18940 | 55.47900 | 1705 ft | 169 kts | 303° |
| 2026-04-21 20:57 | 25.19535 | 55.46824 | 1502 ft | 164 kts | 303° |
| 2026-04-21 20:57 | 25.20127 | 55.45756 | 1294 ft | 161 kts | 303° |
| 2026-04-21 20:57 | 25.20701 | 55.44716 | 1086 ft | 156 kts | 302° |
| 2026-04-21 20:57 | 25.21255 | 55.43695 | 908 ft | 153 kts | 301° |
| 2026-04-21 20:58 | 25.21799 | 55.42695 | 724 ft | 151 kts | 302° |
| 2026-04-21 20:58 | 25.22341 | 55.41713 | 560 ft | 148 kts | 301° |
| 2026-04-21 20:58 | 25.22871 | 55.40767 | 374 ft | 147 kts | 301° |
| 2026-04-21 20:58 | 25.23414 | 55.39799 | 153 ft | 146 kts | 301° |
| 2026-04-21 20:59 | 25.23927 | 55.38881 | 30 ft | 127 kts | 301° |
| 2026-04-21 20:59 | 25.24311 | 55.38188 | 32 ft | 87 kts | 301° |
| 2026-04-21 20:59 | 25.24520 | 55.37811 | 28 ft | 45 kts | 301° |
| 2026-04-21 20:59 | 25.24670 | 55.37541 | 28 ft | 38 kts | 301° |
| 2026-04-21 21:00 | 25.24767 | 55.37316 | 29 ft | 30 kts | 285° |
| 2026-04-21 21:00 | 25.24786 | 55.37119 | 28 ft | 13 kts | 270° |
| 2026-04-21 21:00 | 25.24785 | 55.37042 | 27 ft | 11 kts | 269° |
| 2026-04-21 21:00 | 25.24775 | 55.36966 | 27 ft | 10 kts | 232° |
| 2026-04-21 21:01 | 25.24715 | 55.36923 | 28 ft | 11 kts | 208° |
| 2026-04-21 21:01 | 25.24655 | 55.36886 | 26 ft | 9 kts | 211° |
| 2026-04-21 21:01 | 25.24613 | 55.36857 | 26 ft | 8 kts | 212° |
| 2026-04-21 21:01 | 25.24574 | 55.36830 | 28 ft | 8 kts | 212° |
| 2026-04-21 21:02 | 25.24516 | 55.36791 | 29 ft | 10 kts | 212° |
| 2026-04-21 21:02 | 25.24458 | 55.36749 | 30 ft | 11 kts | 218° |
| 2026-04-21 21:02 | 25.24411 | 55.36699 | 31 ft | 6 kts | 233° |
| 2026-04-21 21:02 | 25.24390 | 55.36657 | 30 ft | 5 kts | 248° |
| 2026-04-21 21:03 | 25.24379 | 55.36620 | 27 ft | 6 kts | 256° |
| 2026-04-21 21:03 | 25.24377 | 55.36584 | 30 ft | 3 kts | 308° |
| 2026-04-21 21:03 | 25.24400 | 55.36571 | 29 ft | 6 kts | 352° |
| 2026-04-21 21:03 | 25.24456 | 55.36566 | 30 ft | 10 kts | 356° |
| 2026-04-21 21:04 | 25.24511 | 55.36563 | 30 ft | 3 kts | 358° |
| 2026-04-21 21:04 | 25.24528 | 55.36563 | 27 ft | 1 kts | 358° |
| 2026-04-21 21:04 | 25.24529 | 55.36563 | 27 ft | 0 kts | 358° |